Time;durP1;ratioP1;P1;durP2;ratioP2;P2;SDS_P1;SDS_P2;PMS_P1;PMS_P2;Temp;Humidity;BMP_temperature;BMP_pressure;BME280_temperature;BME280_humidity;BME280_pressure;Samples;Min_cycle;Max_cycle;Signal;HPM_P1;HPM_P2
2022/05/16 00:00:22;;;;;;;15.63;4.07;;;14.70;99.90;;;;;;5006974;28;20123;-83
2022/05/16 00:02:47;;;;;;;8.35;3.83;;;13.40;99.90;;;;;;5037802;28;20057;-85
2022/05/16 00:05:13;;;;;;;8.18;4.10;;;14.80;99.90;;;;;;5020344;28;20063;-84
2022/05/16 00:07:39;;;;;;;10.13;3.97;;;13.70;99.90;;;;;;5023360;28;20037;-84
2022/05/16 00:10:09;;;;;;;9.10;4.00;;;14.90;99.90;;;;;;5040408;28;20036;-84
2022/05/16 00:12:35;;;;;;;8.27;4.68;;;13.40;99.90;;;;;;5020107;28;20496;-85
2022/05/16 00:15:01;;;;;;;9.95;3.53;;;14.90;99.90;;;;;;5019164;28;20049;-85
2022/05/16 00:17:27;;;;;;;11.55;4.40;;;14.50;99.90;;;;;;5038340;28;20564;-84
2022/05/16 00:19:52;;;;;;;7.63;3.50;;;13.70;99.90;;;;;;5007248;28;20389;-84
2022/05/16 00:22:18;;;;;;;10.20;5.10;;;13.70;99.90;;;;;;4997841;28;20049;-84
2022/05/16 00:24:50;;;;;;;8.75;3.97;;;14.50;99.90;;;;;;5030979;28;20036;-83
2022/05/16 00:27:20;;;;;;;8.55;4.50;;;13.60;99.90;;;;;;5040415;28;20079;-83
2022/05/16 00:29:48;;;;;;;12.95;4.13;;;13.60;99.90;;;;;;5037453;28;20470;-84
2022/05/16 00:32:13;;;;;;;12.20;3.97;;;13.50;99.90;;;;;;5026026;28;20044;-84
2022/05/16 00:34:42;;;;;;;11.73;4.22;;;13.60;99.90;;;;;;5020764;28;20116;-84
2022/05/16 00:37:08;;;;;;;10.25;4.22;;;13.70;99.90;;;;;;5003135;28;20121;-83
2022/05/16 00:39:34;;;;;;;12.77;4.15;;;13.50;99.90;;;;;;5039916;28;20114;-84
2022/05/16 00:42:01;;;;;;;7.80;3.92;;;15.00;99.90;;;;;;5047119;28;20064;-85
2022/05/16 00:44:27;;;;;;;7.95;3.97;;;14.00;99.90;;;;;;5021279;28;20057;-84
2022/05/16 00:46:53;;;;;;;8.95;3.65;;;13.40;99.90;;;;;;5037983;28;20041;-82
2022/05/16 00:49:28;;;;;;;7.60;3.20;;;13.40;99.90;;;;;;5038464;28;20048;-85
2022/05/16 00:52:17;;;;;;;8.95;3.65;;;13.30;99.90;;;;;;5007114;28;20053;-83
2022/05/16 00:54:50;;;;;;;7.90;3.70;;;13.40;99.90;;;;;;5036034;28;20216;-85
2022/05/16 00:57:24;;;;;;;7.35;3.70;;;13.30;99.90;;;;;;5027548;28;20167;-83
2022/05/16 01:00:05;;;;;;;12.80;3.53;;;13.30;99.90;;;;;;5002341;28;20041;-82
2022/05/16 01:05:22;;;;;;;9.43;3.80;;;13.30;99.90;;;;;;5047044;28;20119;-84
2022/05/16 01:07:48;;;;;;;10.85;3.47;;;13.30;99.90;;;;;;5018741;28;20516;-84
2022/05/16 01:10:20;;;;;;;9.70;3.67;;;13.20;99.90;;;;;;5018577;28;20103;-83
2022/05/16 01:12:49;;;;;;;6.47;3.80;;;13.30;99.90;;;;;;5040429;28;20480;-83
2022/05/16 01:15:36;;;;;;;8.52;3.53;;;13.30;99.90;;;;;;5033699;28;20071;-83
2022/05/16 01:18:06;;;;;;;8.38;3.50;;;13.30;99.90;;;;;;5021258;28;20038;-82
2022/05/16 01:20:51;;;;;;;7.45;3.20;;;13.20;99.90;;;;;;5004684;28;20049;-84
2022/05/16 01:23:20;;;;;;;8.90;3.33;;;14.30;99.90;;;;;;5039895;28;20043;-83
2022/05/16 01:25:49;;;;;;;9.55;3.83;;;13.00;99.90;;;;;;5005912;28;20658;-84
2022/05/16 01:28:18;;;;;;;6.72;3.25;;;14.50;99.90;;;;;;5021434;28;20212;-84
2022/05/16 01:30:48;;;;;;;8.10;3.38;;;13.30;99.90;;;;;;5022252;28;20045;-84
2022/05/16 01:33:18;;;;;;;12.88;4.22;;;13.70;99.90;;;;;;5005721;28;20048;-84
2022/05/16 01:35:44;;;;;;;7.53;3.38;;;12.90;99.90;;;;;;5018671;28;20128;-84
2022/05/16 01:38:22;;;;;;;6.05;3.78;;;13.30;99.90;;;;;;5025437;28;20120;-84
2022/05/16 01:40:49;;;;;;;7.78;3.25;;;13.10;99.90;;;;;;5027732;28;20095;-85
2022/05/16 01:43:17;;;;;;;6.05;2.83;;;14.50;99.90;;;;;;5017764;28;20033;-84
2022/05/16 01:45:44;;;;;;;7.90;3.17;;;14.10;99.90;;;;;;5022470;28;20048;-84
2022/05/16 01:48:12;;;;;;;13.32;2.95;;;14.30;99.90;;;;;;5021217;28;20044;-83
2022/05/16 01:50:40;;;;;;;8.70;3.42;;;13.00;99.90;;;;;;5019314;28;20056;-83
2022/05/16 01:53:06;;;;;;;7.22;3.92;;;13.00;99.90;;;;;;5008342;28;20516;-83
2022/05/16 01:55:32;;;;;;;7.97;3.20;;;14.30;99.90;;;;;;5045000;28;20106;-84
2022/05/16 01:57:58;;;;;;;7.85;3.20;;;12.90;99.90;;;;;;5018292;28;20033;-83
2022/05/16 02:00:26;;;;;;;5.75;3.22;;;12.90;99.90;;;;;;5043144;28;20040;-83
2022/05/16 02:02:55;;;;;;;4.35;2.58;;;13.20;99.90;;;;;;5017901;28;20485;-84
2022/05/16 02:05:25;;;;;;;6.07;3.00;;;12.90;99.90;;;;;;5018741;28;20040;-85
2022/05/16 02:07:51;;;;;;;5.03;2.83;;;12.80;99.90;;;;;;5022480;28;20120;-85
2022/05/16 02:10:20;;;;;;;6.72;3.17;;;14.00;99.90;;;;;;5004592;28;20044;-83
2022/05/16 02:12:49;;;;;;;9.45;3.00;;;12.80;99.90;;;;;;5022313;28;20037;-84
2022/05/16 02:15:18;;;;;;;7.90;3.10;;;14.10;99.90;;;;;;4998352;28;20058;-83
2022/05/16 02:17:45;;;;;;;7.28;2.65;;;13.50;99.90;;;;;;4979278;28;20490;-84
2022/05/16 02:20:13;;;;;;;9.50;2.58;;;12.70;99.90;;;;;;4994565;28;20042;-84
2022/05/16 02:25:26;;;;;;;9.15;2.28;;;12.70;99.90;;;;;;4976653;28;20486;-83
2022/05/16 02:27:58;;;;;;;7.75;2.53;;;12.80;99.90;;;;;;4999954;28;20034;-83
2022/05/16 02:30:24;;;;;;;6.40;2.50;;;14.00;99.90;;;;;;4997222;28;20057;-82
2022/05/16 02:32:50;;;;;;;4.32;1.98;;;13.80;99.90;;;;;;4994825;28;20068;-82
2022/05/16 02:35:21;;;;;;;5.97;2.50;;;12.70;99.90;;;;;;4995487;28;20406;-84
2022/05/16 02:37:46;;;;;;;4.22;1.88;;;12.70;99.90;;;;;;5023048;28;20038;-83
2022/05/16 02:40:12;;;;;;;8.13;2.13;;;12.70;99.90;;;;;;4999413;28;20034;-85
2022/05/16 02:42:38;;;;;;;5.47;1.73;;;12.70;99.90;;;;;;5018066;28;20077;-84
2022/05/16 02:45:07;;;;;;;4.88;1.73;;;12.60;99.90;;;;;;5018413;28;20052;-83
2022/05/16 02:47:35;;;;;;;5.15;1.98;;;12.60;99.90;;;;;;5002399;28;20053;-82
2022/05/16 02:50:02;;;;;;;3.75;1.90;;;12.60;99.90;;;;;;4999801;28;20081;-83
2022/05/16 02:52:28;;;;;;;9.75;2.42;;;12.60;99.90;;;;;;5007454;28;20046;-84
2022/05/16 02:55:00;;;;;;;4.00;1.80;;;12.60;99.90;;;;;;5002668;28;20042;-83
2022/05/16 02:57:26;;;;;;;3.05;1.75;;;12.60;99.90;;;;;;5004209;28;20058;-82
2022/05/16 02:59:52;;;;;;;3.85;2.15;;;12.60;99.90;;;;;;5020301;28;20042;-84
2022/05/16 03:02:17;;;;;;;4.13;2.03;;;12.60;99.90;;;;;;5019522;28;20041;-84
2022/05/16 03:04:43;;;;;;;6.03;1.40;;;12.70;99.90;;;;;;5011505;28;20042;-84
2022/05/16 03:07:09;;;;;;;6.38;2.22;;;12.50;99.90;;;;;;5001820;28;20049;-83
2022/05/16 03:09:38;;;;;;;3.67;1.67;;;12.50;99.90;;;;;;5002145;28;20050;-84
2022/05/16 03:12:04;;;;;;;2.60;1.65;;;12.50;99.90;;;;;;5001684;28;20144;-84
2022/05/16 03:14:30;;;;;;;5.53;1.45;;;12.50;99.90;;;;;;4994220;28;20053;-83
2022/05/16 03:16:56;;;;;;;2.50;1.40;;;12.10;99.90;;;;;;5004761;28;20049;-81
2022/05/16 03:19:22;;;;;;;2.40;1.35;;;12.40;99.90;;;;;;5023564;28;20404;-83
2022/05/16 03:21:48;;;;;;;4.20;1.58;;;12.20;99.90;;;;;;5009324;28;20045;-83
2022/05/16 03:24:13;;;;;;;8.85;1.55;;;12.30;99.90;;;;;;5018322;28;20104;-83
2022/05/16 03:26:39;;;;;;;5.97;1.45;;;12.40;99.90;;;;;;5011323;28;20041;-83
2022/05/16 03:29:11;;;;;;;3.63;1.75;;;12.30;99.90;;;;;;5022213;28;20115;-81
2022/05/16 03:31:36;;;;;;;3.67;1.52;;;12.40;99.90;;;;;;5019814;28;20525;-85
2022/05/16 03:34:03;;;;;;;2.45;1.48;;;12.10;99.90;;;;;;5005591;28;20125;-83
2022/05/16 03:36:31;;;;;;;4.25;1.58;;;11.90;99.90;;;;;;5038304;28;20498;-83
2022/05/16 03:41:41;;;;;;;2.53;1.48;;;12.30;99.90;;;;;;5019569;28;20050;-84
2022/05/16 03:44:07;;;;;;;6.03;1.63;;;12.20;99.90;;;;;;5006714;28;20321;-84
2022/05/16 03:46:37;;;;;;;4.22;1.60;;;12.20;99.90;;;;;;5021068;28;20045;-85
2022/05/16 03:49:04;;;;;;;3.53;1.52;;;12.20;99.90;;;;;;5018816;28;20041;-83
2022/05/16 03:51:29;;;;;;;4.50;1.50;;;12.20;99.90;;;;;;5020593;28;20111;-82
2022/05/16 03:53:55;;;;;;;3.35;1.25;;;12.20;99.90;;;;;;5004580;28;20448;-81
2022/05/16 03:56:24;;;;;;;4.47;1.67;;;12.20;99.90;;;;;;5036858;28;20033;-84
2022/05/16 03:58:50;;;;;;;6.97;1.65;;;12.20;99.90;;;;;;5037245;28;20452;-84
2022/05/16 04:01:20;;;;;;;3.45;1.30;;;12.10;99.90;;;;;;5027967;28;20295;-82
2022/05/16 04:03:46;;;;;;;5.13;2.10;;;12.10;99.90;;;;;;5025760;28;20057;-84
2022/05/16 04:06:13;;;;;;;6.15;2.15;;;12.10;99.90;;;;;;5024455;28;20037;-83
2022/05/16 04:08:40;;;;;;;5.53;1.02;;;12.10;99.90;;;;;;5043881;28;20042;-84
2022/05/16 04:11:07;;;;;;;3.63;1.55;;;12.10;99.90;;;;;;4996221;28;20041;-83
2022/05/16 04:13:33;;;;;;;6.22;2.30;;;12.10;99.90;;;;;;5030215;28;20053;-83
2022/05/16 04:15:59;;;;;;;3.47;2.13;;;12.90;99.90;;;;;;5020157;28;20116;-83
2022/05/16 04:18:27;;;;;;;6.40;1.77;;;12.00;99.90;;;;;;5020825;28;20575;-84
2022/05/16 04:20:53;;;;;;;6.35;2.63;;;12.00;99.90;;;;;;5023745;28;20029;-84
2022/05/16 04:23:19;;;;;;;4.45;1.80;;;11.00;99.90;;;;;;5023529;28;20037;-82
2022/05/16 04:25:48;;;;;;;5.30;1.50;;;13.70;99.90;;;;;;5046609;28;20048;-83
2022/05/16 04:28:14;;;;;;;5.60;1.95;;;13.30;99.90;;;;;;5003857;28;20319;-84
2022/05/16 04:30:44;;;;;;;2.08;1.17;;;12.10;99.90;;;;;;5046318;28;20500;-83
2022/05/16 04:33:10;;;;;;;6.00;1.73;;;13.20;99.90;;;;;;5003695;28;20095;-83
2022/05/16 04:35:38;;;;;;;5.05;1.70;;;12.90;99.90;;;;;;5048815;28;20308;-86
2022/05/16 04:38:05;;;;;;;4.85;1.80;;;12.10;99.90;;;;;;5025313;28;20042;-85
2022/05/16 04:40:31;;;;;;;3.83;1.45;;;12.00;99.90;;;;;;5028611;28;20041;-83
2022/05/16 04:42:57;;;;;;;7.28;2.17;;;13.80;99.90;;;;;;5019745;28;20559;-83
2022/05/16 04:45:29;;;;;;;3.38;1.38;;;12.10;99.90;;;;;;5026243;28;20086;-83
2022/05/16 04:47:57;;;;;;;5.63;1.35;;;12.10;99.90;;;;;;5019804;28;20041;-84
2022/05/16 04:50:27;;;;;;;4.43;1.73;;;13.70;99.90;;;;;;5002858;28;20504;-83
2022/05/16 04:52:53;;;;;;;5.57;1.88;;;12.20;99.90;;;;;;5021401;28;20453;-83
2022/05/16 04:55:20;;;;;;;2.67;1.40;;;13.10;99.90;;;;;;5040553;28;20477;-82
2022/05/16 04:57:46;;;;;;;8.15;1.90;;;12.30;99.90;;;;;;5021270;28;20500;-83
2022/05/16 05:00:13;;;;;;;5.20;1.92;;;11.50;99.90;;;;;;5000607;28;20044;-83
2022/05/16 05:02:40;;;;;;;6.22;2.08;;;12.20;99.90;;;;;;5027629;28;20049;-84
2022/05/16 05:05:07;;;;;;;3.90;1.30;;;12.00;99.90;;;;;;5002225;28;20048;-83
2022/05/16 05:07:36;;;;;;;3.10;1.70;;;12.30;99.90;;;;;;5019508;28;20489;-84
2022/05/16 05:15:36;;;;;;;4.20;1.83;;;12.30;99.90;;;;;;5030214;28;20064;-84
2022/05/16 05:18:03;;;;;;;5.68;1.60;;;12.40;99.90;;;;;;5047710;28;20183;-83
2022/05/16 05:20:33;;;;;;;4.75;1.70;;;12.40;99.90;;;;;;5004932;28;20052;-84
2022/05/16 05:23:01;;;;;;;5.25;1.98;;;13.00;99.90;;;;;;5040264;28;20037;-83
2022/05/16 05:25:30;;;;;;;4.78;1.60;;;13.50;99.90;;;;;;5023586;28;20037;-83
2022/05/16 05:28:03;;;;;;;6.38;2.15;;;12.00;99.90;;;;;;5019037;28;20040;-84
2022/05/16 05:30:32;;;;;;;3.13;1.85;;;12.60;99.90;;;;;;5019500;28;20104;-85
2022/05/16 05:32:58;;;;;;;6.75;1.95;;;12.20;99.90;;;;;;5039933;28;20464;-84
2022/05/16 05:35:29;;;;;;;7.50;2.33;;;12.60;99.90;;;;;;5030616;28;20041;-84
2022/05/16 05:37:56;;;;;;;4.78;1.92;;;12.60;99.90;;;;;;5038882;28;20080;-84
2022/05/16 05:40:22;;;;;;;9.40;1.98;;;12.70;99.90;;;;;;5018739;28;20049;-82
2022/05/16 05:42:50;;;;;;;4.13;1.90;;;12.70;99.90;;;;;;5038662;28;20064;-83
2022/05/16 05:45:19;;;;;;;4.30;2.17;;;12.70;99.90;;;;;;5022536;28;20134;-83
2022/05/16 05:47:45;;;;;;;5.70;1.90;;;12.80;99.90;;;;;;5021590;28;20578;-84
2022/05/16 05:50:11;;;;;;;4.32;1.80;;;12.70;99.90;;;;;;5039348;28;20041;-84
2022/05/16 05:52:37;;;;;;;8.73;2.55;;;12.70;99.90;;;;;;5022306;28;20045;-82
2022/05/16 05:55:05;;;;;;;6.47;1.88;;;12.70;99.90;;;;;;5026714;28;20033;-83
2022/05/16 05:57:31;;;;;;;3.38;1.70;;;12.80;99.90;;;;;;5037431;28;20428;-84
2022/05/16 05:59:57;;;;;;;7.15;2.25;;;12.80;99.90;;;;;;5038013;28;20129;-83
2022/05/16 06:02:25;;;;;;;3.72;2.20;;;12.80;99.90;;;;;;5029927;28;20041;-83
2022/05/16 06:04:51;;;;;;;3.47;1.38;;;12.80;99.90;;;;;;5021047;28;20099;-84
2022/05/16 06:07:17;;;;;;;5.90;2.22;;;12.80;99.90;;;;;;5020210;28;20485;-84
2022/05/16 06:09:42;;;;;;;4.38;2.13;;;13.00;99.90;;;;;;5018244;28;20124;-84
2022/05/16 06:12:10;;;;;;;6.38;2.22;;;12.90;99.90;;;;;;5008672;28;20120;-83
2022/05/16 06:14:38;;;;;;;10.90;2.60;;;13.10;99.90;;;;;;5009541;28;20057;-85
2022/05/16 06:17:06;;;;;;;7.00;2.30;;;13.10;99.90;;;;;;5024153;28;20059;-84
2022/05/16 06:19:32;;;;;;;6.85;1.90;;;13.20;99.90;;;;;;5017718;28;20156;-84
2022/05/16 06:22:05;;;;;;;7.43;2.47;;;13.30;99.90;;;;;;5010347;28;20091;-84
2022/05/16 06:27:18;;;;;;;8.23;2.72;;;13.50;99.90;;;;;;5029403;28;20456;-84
2022/05/16 06:29:46;;;;;;;5.82;2.13;;;13.60;99.90;;;;;;5039157;28;20408;-84
2022/05/16 06:32:12;;;;;;;5.68;2.10;;;13.70;99.90;;;;;;5030245;28;20044;-85
2022/05/16 06:34:39;;;;;;;5.97;2.28;;;13.80;99.90;;;;;;5022587;28;20481;-84
2022/05/16 06:37:07;;;;;;;11.68;2.50;;;13.80;99.90;;;;;;5029389;28;20102;-86
2022/05/16 06:39:33;;;;;;;4.82;2.03;;;14.50;99.90;;;;;;5028312;28;20464;-84
2022/05/16 06:41:58;;;;;;;4.97;1.88;;;14.00;99.90;;;;;;5023354;28;20232;-84
2022/05/16 06:44:24;;;;;;;9.70;2.20;;;14.10;99.90;;;;;;5004907;28;20052;-84
2022/05/16 06:46:50;;;;;;;5.78;2.63;;;14.20;99.90;;;;;;5047269;28;20098;-84
2022/05/16 06:49:19;;;;;;;6.63;2.17;;;14.30;99.90;;;;;;5021886;28;20041;-85
2022/05/16 06:51:44;;;;;;;8.07;2.42;;;14.50;99.90;;;;;;5029472;28;20508;-83
2022/05/16 06:54:10;;;;;;;7.43;2.45;;;14.40;99.90;;;;;;5040224;28;20033;-84
2022/05/16 06:56:38;;;;;;;8.38;2.30;;;14.50;99.90;;;;;;5039029;28;20441;-84
2022/05/16 06:59:04;;;;;;;6.78;2.80;;;14.60;99.90;;;;;;5006400;28;20413;-85
2022/05/16 07:01:30;;;;;;;5.40;2.33;;;15.40;99.90;;;;;;5024581;28;20048;-83
2022/05/16 07:03:56;;;;;;;9.13;2.75;;;14.80;99.90;;;;;;5024424;28;20567;-83
2022/05/16 07:06:21;;;;;;;5.38;2.08;;;14.90;99.90;;;;;;5005045;28;20076;-85
2022/05/16 07:08:47;;;;;;;7.68;2.30;;;15.00;99.90;;;;;;5022350;28;20053;-85
2022/05/16 07:11:13;;;;;;;12.15;2.83;;;15.10;99.90;;;;;;5047412;28;20041;-85
2022/05/16 07:13:38;;;;;;;8.00;2.60;;;15.10;99.90;;;;;;5011584;28;21052;-85
2022/05/16 07:16:07;;;;;;;6.97;2.35;;;16.40;99.90;;;;;;5033599;28;20045;-85
2022/05/16 07:18:35;;;;;;;7.35;2.20;;;15.20;99.90;;;;;;5026229;28;20048;-85
2022/05/16 07:21:01;;;;;;;7.38;2.50;;;16.10;99.90;;;;;;5022793;28;20061;-84
2022/05/16 07:23:26;;;;;;;8.60;2.25;;;15.40;99.90;;;;;;5021160;28;20159;-84
2022/05/16 07:28:38;;;;;;;4.90;2.40;;;15.80;99.90;;;;;;5048401;28;20049;-86
2022/05/16 07:31:04;;;;;;;8.70;2.90;;;16.00;99.90;;;;;;5024936;28;20531;-85
2022/05/16 07:33:31;;;;;;;9.23;2.47;;;16.00;99.90;;;;;;5036158;28;20135;-82
2022/05/16 07:35:57;;;;;;;5.30;1.80;;;16.20;99.90;;;;;;5039910;28;20037;-84
2022/05/16 07:38:26;;;;;;;7.05;2.50;;;16.30;99.90;;;;;;5008656;28;20037;-86
2022/05/16 07:40:52;;;;;;;5.95;2.00;;;16.40;99.90;;;;;;5023689;28;20048;-81
2022/05/16 07:43:25;;;;;;;5.65;2.13;;;16.60;99.90;;;;;;5004567;28;20049;-86
2022/05/16 07:45:52;;;;;;;6.07;2.38;;;16.70;99.90;;;;;;5021397;28;20041;-83
2022/05/16 07:48:18;;;;;;;7.65;2.90;;;17.30;99.90;;;;;;5041785;28;20040;-84
2022/05/16 07:50:48;;;;;;;15.20;2.95;;;16.80;99.90;;;;;;5008756;28;20067;-83
2022/05/16 07:53:14;;;;;;;6.05;2.30;;;16.90;99.90;;;;;;5021824;28;20590;-86
2022/05/16 07:55:45;;;;;;;7.03;2.20;;;16.90;99.90;;;;;;5038580;28;20124;-84
2022/05/16 07:58:12;;;;;;;5.80;2.47;;;17.00;99.90;;;;;;5038852;28;20041;-84
2022/05/16 08:00:50;;;;;;;9.05;2.58;;;17.00;99.90;;;;;;5033150;28;20048;-83
2022/05/16 08:03:19;;;;;;;10.52;2.58;;;17.20;99.90;;;;;;5034400;28;20048;-85
2022/05/16 08:05:45;;;;;;;5.40;2.60;;;18.10;99.90;;;;;;5011449;28;20057;-85
2022/05/16 08:10:59;;;;;;;5.85;2.33;;;17.40;99.90;;;;;;5038243;28;20049;-84
2022/05/16 08:13:27;;;;;;;8.00;2.50;;;18.80;99.90;;;;;;5024364;28;20599;-84
2022/05/16 08:15:53;;;;;;;10.75;2.60;;;17.50;99.90;;;;;;5006912;28;20051;-86
2022/05/16 08:18:19;;;;;;;9.38;2.95;;;17.60;99.90;;;;;;5020805;28;20079;-86
2022/05/16 08:20:50;;;;;;;10.15;2.45;;;19.10;99.90;;;;;;5020471;28;20048;-84
2022/05/16 08:23:19;;;;;;;10.43;3.83;;;17.80;99.90;;;;;;5005139;28;20136;-86
2022/05/16 08:25:45;;;;;;;7.53;2.38;;;17.90;99.90;;;;;;5023841;28;20090;-85
2022/05/16 08:28:12;;;;;;;7.35;2.75;;;17.90;99.90;;;;;;5041189;28;20080;-84
2022/05/16 08:30:37;;;;;;;6.85;2.40;;;18.00;99.90;;;;;;5023188;28;20049;-86
2022/05/16 08:33:04;;;;;;;8.05;2.00;;;18.10;99.90;;;;;;5022774;28;20465;-83
2022/05/16 08:35:30;;;;;;;5.07;1.60;;;18.20;99.90;;;;;;5020553;28;20540;-86
2022/05/16 08:40:41;;;;;;;7.18;2.80;;;18.50;99.90;;;;;;5023301;28;20041;-84
2022/05/16 08:43:30;;;;;;;8.75;2.58;;;18.60;99.90;;;;;;5015001;28;20060;-87
2022/05/16 08:46:16;;;;;;;6.57;2.13;;;19.50;99.90;;;;;;4996184;28;20049;-84
2022/05/16 08:48:49;;;;;;;8.93;3.08;;;18.70;99.90;;;;;;5007525;28;20060;-85
2022/05/16 08:51:28;;;;;;;6.13;2.67;;;19.30;99.90;;;;;;5020770;28;20052;-85
2022/05/16 08:54:10;;;;;;;8.60;2.20;;;19.20;99.90;;;;;;5020015;28;20125;-86
2022/05/16 08:56:40;;;;;;;9.20;1.88;;;19.20;99.90;;;;;;5037072;28;20133;-86
2022/05/16 08:59:18;;;;;;;10.30;2.25;;;19.30;99.90;;;;;;5040710;28;20072;-87
2022/05/16 09:01:55;;;;;;;6.20;2.10;;;19.50;99.90;;;;;;5023509;28;20416;-85
2022/05/16 09:04:26;;;;;;;7.03;2.90;;;19.40;99.90;;;;;;5021097;28;20049;-88
2022/05/16 09:07:02;;;;;;;12.98;2.90;;;19.50;99.90;;;;;;5038257;28;20385;-87
2022/05/16 09:09:39;;;;;;;7.75;2.13;;;19.50;99.90;;;;;;5006673;28;20053;-86
2022/05/16 09:12:16;;;;;;;11.52;2.40;;;19.50;99.90;;;;;;5022690;28;20098;-86
2022/05/16 09:14:54;;;;;;;7.50;2.35;;;19.50;99.90;;;;;;5041268;28;20407;-86
2022/05/16 09:17:30;;;;;;;6.22;2.33;;;19.50;99.90;;;;;;5021631;28;20132;-89
2022/05/16 09:20:14;;;;;;;8.25;2.50;;;19.60;99.90;;;;;;5024254;28;20116;-83
2022/05/16 09:22:57;;;;;;;7.95;2.67;;;19.60;99.90;;;;;;5038815;28;20033;-84
2022/05/16 09:25:44;;;;;;;8.52;2.47;;;19.60;99.90;;;;;;5021547;28;20045;-87
2022/05/16 09:31:12;;;;;;;8.75;2.38;;;19.80;99.90;;;;;;5036549;28;20052;-85
2022/05/16 09:33:45;;;;;;;8.52;2.42;;;19.90;99.90;;;;;;5022753;28;20040;-86
2022/05/16 09:36:19;;;;;;;12.35;2.38;;;20.00;99.90;;;;;;5006962;28;20108;-86
2022/05/16 09:38:48;;;;;;;6.57;2.03;;;20.10;99.90;;;;;;5005539;28;20054;-88
2022/05/16 09:41:34;;;;;;;11.70;2.20;;;20.20;99.90;;;;;;5025251;28;20041;-85
2022/05/16 09:44:09;;;;;;;5.70;2.45;;;20.40;99.90;;;;;;5033769;28;20033;-86
2022/05/16 09:46:41;;;;;;;12.73;2.90;;;20.50;99.90;;;;;;5033656;28;20063;-88
2022/05/16 09:49:27;;;;;;;10.27;2.15;;;20.60;99.90;;;;;;5030059;28;20049;-84
2022/05/16 09:51:56;;;;;;;5.55;2.58;;;20.80;99.90;;;;;;5043673;28;20052;-87
2022/05/16 09:54:26;;;;;;;6.95;1.90;;;21.00;99.90;;;;;;5009175;28;20492;-87
2022/05/16 09:57:03;;;;;;;6.80;2.00;;;21.30;99.90;;;;;;5041170;28;20041;-81
2022/05/16 09:59:42;;;;;;;8.13;2.13;;;21.40;99.90;;;;;;5025749;28;20041;-86
2022/05/16 10:02:31;;;;;;;7.70;2.17;;;21.70;99.90;;;;;;5010035;28;20049;-87
2022/05/16 10:05:05;;;;;;;8.77;3.05;;;22.00;99.30;;;;;;5038594;28;20486;-87
2022/05/16 10:07:46;;;;;;;9.20;2.30;;;22.20;98.10;;;;;;5049084;28;20037;-86
2022/05/16 10:10:21;;;;;;;8.70;2.20;;;22.30;97.50;;;;;;5013277;28;20051;-86
2022/05/16 10:12:49;;;;;;;12.30;2.25;;;22.40;97.00;;;;;;5007251;28;20037;-87
2022/05/16 10:15:17;;;;;;;7.18;2.25;;;22.50;96.60;;;;;;5040227;28;20521;-87
2022/05/16 10:17:45;;;;;;;7.28;1.90;;;22.60;96.10;;;;;;5039870;28;20045;-87
2022/05/16 10:20:17;;;;;;;11.23;2.50;;;22.70;95.60;;;;;;5022343;28;20572;-88
2022/05/16 10:22:46;;;;;;;6.47;1.98;;;22.70;94.50;;;;;;5043740;28;20346;-88
2022/05/16 10:25:27;;;;;;;11.93;2.55;;;22.70;93.70;;;;;;5043691;28;20045;-87
2022/05/16 10:27:55;;;;;;;6.90;1.65;;;22.80;94.00;;;;;;5044066;28;20093;-87
2022/05/16 10:30:26;;;;;;;8.63;2.08;;;22.90;94.20;;;;;;5033310;28;20051;-88
2022/05/16 10:35:50;;;;;;;5.00;2.00;;;23.00;93.60;;;;;;5046645;28;20041;-88
2022/05/16 10:38:48;;;;;;;4.22;1.70;;;23.20;93.30;;;;;;5026616;28;20524;-91
2022/05/16 10:41:43;;;;;;;9.63;2.15;;;23.30;92.10;;;;;;5006033;28;20554;-83
2022/05/16 10:44:29;;;;;;;8.35;1.83;;;23.30;91.60;;;;;;5045271;28;20409;-89
2022/05/16 10:47:21;;;;;;;8.10;2.22;;;23.30;91.30;;;;;;5024723;28;20128;-88
2022/05/16 10:49:56;;;;;;;5.95;2.40;;;23.40;92.40;;;;;;5026229;28;20052;-89
2022/05/16 10:52:44;;;;;;;9.27;2.28;;;23.40;92.20;;;;;;5010405;28;20037;-90
2022/05/16 10:55:10;;;;;;;3.88;2.00;;;23.40;91.60;;;;;;5006296;28;20033;-89
2022/05/16 10:58:10;;;;;;;7.18;1.63;;;23.40;91.20;;;;;;5042911;28;20037;-88
2022/05/16 11:01:04;;;;;;;5.32;2.42;;;23.30;90.40;;;;;;5032585;28;20549;-87
2022/05/16 11:03:48;;;;;;;;;;;23.20;90.90;;;;;;5033030;28;20057;-85
2022/05/16 11:06:40;;;;;;;4.72;1.63;;;23.10;91.40;;;;;;5018302;28;19960;-87
2022/05/16 11:09:09;;;;;;;11.30;2.15;;;23.00;91.60;;;;;;5042976;28;20048;-86
2022/05/16 11:11:43;;;;;;;7.38;1.90;;;23.00;91.70;;;;;;5043572;28;20048;-85
2022/05/16 11:14:22;;;;;;;6.47;1.88;;;22.90;91.80;;;;;;5041000;28;20132;-88
2022/05/16 11:16:52;;;;;;;12.23;1.95;;;22.90;92.20;;;;;;5040677;28;20099;-88
2022/05/16 11:19:36;;;;;;;7.10;1.98;;;22.80;92.90;;;;;;5041999;28;20041;-89
2022/05/16 11:22:28;;;;;;;7.18;3.67;;;22.80;92.60;;;;;;5046674;28;20045;-87
2022/05/16 11:25:06;;;;;;;9.73;2.30;;;22.80;92.70;;;;;;5033105;28;20539;-85
2022/05/16 11:28:11;;;;;;;9.30;2.45;;;22.80;92.50;;;;;;5008299;28;20048;-88
2022/05/16 11:30:47;;;;;;;6.68;1.73;;;22.70;92.70;;;;;;5041818;28;20094;-87
2022/05/16 11:33:36;;;;;;;5.07;1.80;;;22.70;92.70;;;;;;5024339;28;20051;-88
2022/05/16 11:36:45;;;;;;;7.82;1.60;;;22.70;93.30;;;;;;5034776;28;20470;-88
2022/05/16 11:39:18;;;;;;;7.32;2.20;;;22.70;93.80;;;;;;5020894;28;20484;-86
2022/05/16 11:41:54;;;;;;;10.55;2.20;;;22.80;93.50;;;;;;5029961;28;20053;-85
2022/05/16 11:44:28;;;;;;;8.35;2.25;;;22.80;93.80;;;;;;5022051;28;20041;-87
2022/05/16 11:47:20;;;;;;;7.00;2.67;;;23.30;94.20;;;;;;5020686;28;20072;-89
2022/05/16 11:50:14;;;;;;;8.25;2.38;;;22.80;94.10;;;;;;5005315;28;20079;-86
2022/05/16 11:53:11;;;;;;;9.40;2.78;;;22.80;94.70;;;;;;5045101;28;20590;-88
2022/05/16 12:01:36;;;;;;;8.95;2.28;;;22.80;94.70;;;;;;5054412;28;20504;-88
2022/05/16 12:04:13;;;;;;;9.70;2.63;;;22.80;95.10;;;;;;5044523;28;20037;-87
2022/05/16 12:06:43;;;;;;;8.48;2.83;;;22.80;94.60;;;;;;5041824;28;20052;-88
2022/05/16 12:09:17;;;;;;;11.07;3.08;;;22.80;94.70;;;;;;5043998;28;20049;-88
2022/05/16 12:11:51;;;;;;;18.83;3.47;;;22.80;95.20;;;;;;5038619;28;20037;-85
2022/05/16 12:14:39;;;;;;;;;;;23.50;95.70;;;;;;5039071;28;20075;-84
2022/05/16 12:17:07;;;;;;;9.68;2.70;;;22.70;95.70;;;;;;5036695;28;19921;-82
2022/05/16 12:19:34;;;;;;;8.65;3.13;;;22.60;95.90;;;;;;5021647;28;20044;-78
2022/05/16 12:22:30;;;;;;;7.80;2.90;;;22.60;95.90;;;;;;5036414;28;20068;-76
2022/05/16 12:24:58;;;;;;;11.52;3.42;;;22.50;95.90;;;;;;5023751;28;20080;-78
2022/05/16 12:27:36;;;;;;;8.90;2.63;;;22.50;96.00;;;;;;5010389;28;20044;-78
2022/05/16 12:30:13;;;;;;;13.10;2.60;;;22.70;96.10;;;;;;5018914;28;20038;-79
2022/05/16 12:32:38;;;;;;;8.98;2.90;;;22.50;96.40;;;;;;5004186;28;20084;-79
2022/05/16 12:35:07;;;;;;;9.57;2.65;;;22.90;96.70;;;;;;5022849;28;20073;-78
2022/05/16 12:37:35;;;;;;;7.35;2.60;;;22.50;96.70;;;;;;5006569;28;20053;-80
2022/05/16 12:40:13;;;;;;;10.73;2.83;;;23.20;97.20;;;;;;5022335;28;20038;-83
2022/05/16 12:43:00;;;;;;;7.85;2.70;;;22.60;97.00;;;;;;5041968;28;20563;-82
2022/05/16 12:45:53;;;;;;;5.85;2.80;;;22.60;97.00;;;;;;5016219;28;20404;-81
2022/05/16 12:48:38;;;;;;;10.30;3.25;;;22.70;97.90;;;;;;5041706;28;20045;-83
2022/05/16 12:51:27;;;;;;;7.00;2.65;;;22.70;97.60;;;;;;5021195;28;20080;-77
2022/05/16 12:54:22;;;;;;;10.80;3.22;;;22.80;97.50;;;;;;5020098;28;20068;-82
2022/05/16 12:56:57;;;;;;;9.68;2.90;;;22.80;97.10;;;;;;5034706;28;20037;-81
2022/05/16 12:59:39;;;;;;;11.57;3.42;;;22.90;97.10;;;;;;5003836;28;20045;-83
2022/05/16 13:02:29;;;;;;;10.60;2.70;;;23.00;96.80;;;;;;5024824;28;20049;-83
2022/05/16 13:05:17;;;;;;;11.10;3.20;;;23.00;97.00;;;;;;5022721;28;20127;-79
2022/05/16 13:08:01;;;;;;;9.57;3.40;;;23.10;97.20;;;;;;5045042;28;20045;-83
2022/05/16 13:10:56;;;;;;;7.00;2.65;;;23.10;97.10;;;;;;5046650;28;20118;-83
2022/05/16 13:14:00;;;;;;;9.50;2.92;;;23.10;96.90;;;;;;5023506;28;20041;-82
2022/05/16 13:16:30;;;;;;;9.23;3.40;;;23.30;96.60;;;;;;5043801;28;20109;-83
2022/05/16 13:19:06;;;;;;;12.57;3.78;;;23.10;96.30;;;;;;5026777;28;20049;-82
2022/05/16 13:21:51;;;;;;;13.07;4.10;;;23.20;95.80;;;;;;5020548;28;20049;-82
2022/05/16 13:24:18;;;;;;;19.80;4.70;;;23.20;95.80;;;;;;5025226;28;20037;-82
2022/05/16 13:29:36;;;;;;;11.43;4.53;;;23.00;96.20;;;;;;5022150;28;20052;-81
2022/05/16 13:32:18;;;;;;;10.13;4.07;;;23.10;96.60;;;;;;5016397;28;20048;-83
2022/05/16 13:34:51;;;;;;;6.78;3.47;;;23.50;96.90;;;;;;5039226;28;20033;-82
2022/05/16 13:37:19;;;;;;;;;;;22.80;97.00;;;;;;5005885;28;20085;-82
2022/05/16 13:39:47;;;;;;;9.43;4.00;;;23.40;97.20;;;;;;5029693;28;19921;-82
2022/05/16 13:42:13;;;;;;;9.07;4.07;;;22.70;97.10;;;;;;5043010;28;20489;-84
2022/05/16 13:44:41;;;;;;;7.25;4.20;;;22.70;97.20;;;;;;5030785;28;20048;-82
2022/05/16 13:47:20;;;;;;;9.60;4.78;;;22.70;97.40;;;;;;5018598;28;20037;-84